sensor_id;sensor_type;location;lat;lon;timestamp;temperature;humidity
47765;DHT22;33529;49.242;8.670;2022-10-17T00:00:48;14.90;99.90
47765;DHT22;33529;49.242;8.670;2022-10-17T00:03:15;14.90;99.90
47765;DHT22;33529;49.242;8.670;2022-10-17T00:05:45;14.90;99.90
47765;DHT22;33529;49.242;8.670;2022-10-17T00:08:13;14.80;99.90
47765;DHT22;33529;49.242;8.670;2022-10-17T00:10:41;14.80;99.90
47765;DHT22;33529;49.242;8.670;2022-10-17T00:13:08;14.80;99.90
47765;DHT22;33529;49.242;8.670;2022-10-17T00:15:35;14.90;99.90
47765;DHT22;33529;49.242;8.670;2022-10-17T00:18:02;14.90;99.90
47765;DHT22;33529;49.242;8.670;2022-10-17T00:20:29;14.90;99.90
47765;DHT22;33529;49.242;8.670;2022-10-17T00:22:58;15.00;99.90
47765;DHT22;33529;49.242;8.670;2022-10-17T00:25:26;14.90;99.90
47765;DHT22;33529;49.242;8.670;2022-10-17T00:27:53;14.90;99.90
47765;DHT22;33529;49.242;8.670;2022-10-17T00:30:20;14.80;99.90
47765;DHT22;33529;49.242;8.670;2022-10-17T00:32:46;14.80;99.90
47765;DHT22;33529;49.242;8.670;2022-10-17T00:35:14;14.80;99.90
47765;DHT22;33529;49.242;8.670;2022-10-17T00:37:41;14.80;99.90
47765;DHT22;33529;49.242;8.670;2022-10-17T00:40:08;14.70;99.90
47765;DHT22;33529;49.242;8.670;2022-10-17T00:42:35;14.80;99.90
47765;DHT22;33529;49.242;8.670;2022-10-17T00:47:42;14.80;99.90
47765;DHT22;33529;49.242;8.670;2022-10-17T00:50:13;14.80;99.90
47765;DHT22;33529;49.242;8.670;2022-10-17T00:52:40;14.80;99.90
47765;DHT22;33529;49.242;8.670;2022-10-17T00:55:24;14.80;99.90
47765;DHT22;33529;49.242;8.670;2022-10-17T00:57:55;14.60;99.90
47765;DHT22;33529;49.242;8.670;2022-10-17T01:00:24;14.50;99.90
47765;DHT22;33529;49.242;8.670;2022-10-17T01:02:51;14.50;99.90
47765;DHT22;33529;49.242;8.670;2022-10-17T01:05:19;14.60;99.90
47765;DHT22;33529;49.242;8.670;2022-10-17T01:07:47;14.40;99.90
47765;DHT22;33529;49.242;8.670;2022-10-17T01:10:16;14.40;99.90
47765;DHT22;33529;49.242;8.670;2022-10-17T01:13:00;14.30;99.90
47765;DHT22;33529;49.242;8.670;2022-10-17T01:15:58;14.20;99.90
47765;DHT22;33529;49.242;8.670;2022-10-17T01:18:39;14.10;99.90
47765;DHT22;33529;49.242;8.670;2022-10-17T01:21:13;14.10;99.90
47765;DHT22;33529;49.242;8.670;2022-10-17T01:26:31;13.80;99.90
47765;DHT22;33529;49.242;8.670;2022-10-17T01:29:32;13.80;99.90
47765;DHT22;33529;49.242;8.670;2022-10-17T01:32:09;13.90;99.90
47765;DHT22;33529;49.242;8.670;2022-10-17T01:34:49;14.00;99.90
47765;DHT22;33529;49.242;8.670;2022-10-17T01:45:38;14.10;99.90
47765;DHT22;33529;49.242;8.670;2022-10-17T01:48:17;14.10;99.90
47765;DHT22;33529;49.242;8.670;2022-10-17T01:50:50;14.10;99.90
47765;DHT22;33529;49.242;8.670;2022-10-17T01:53:25;14.10;99.90
47765;DHT22;33529;49.242;8.670;2022-10-17T01:55:55;14.20;99.90
47765;DHT22;33529;49.242;8.670;2022-10-17T01:58:35;14.20;99.90
47765;DHT22;33529;49.242;8.670;2022-10-17T02:01:06;14.20;99.90
47765;DHT22;33529;49.242;8.670;2022-10-17T02:03:34;14.20;99.90
47765;DHT22;33529;49.242;8.670;2022-10-17T02:06:04;14.10;99.90
47765;DHT22;33529;49.242;8.670;2022-10-17T02:08:59;14.20;99.90
47765;DHT22;33529;49.242;8.670;2022-10-17T02:11:26;14.20;99.90
47765;DHT22;33529;49.242;8.670;2022-10-17T02:25:01;14.10;99.90
47765;DHT22;33529;49.242;8.670;2022-10-17T02:28:19;14.10;99.90
47765;DHT22;33529;49.242;8.670;2022-10-17T02:31:14;14.00;99.90
47765;DHT22;33529;49.242;8.670;2022-10-17T02:33:48;14.00;99.90
47765;DHT22;33529;49.242;8.670;2022-10-17T02:36:21;13.90;99.90
47765;DHT22;33529;49.242;8.670;2022-10-17T02:38:49;14.00;99.90
47765;DHT22;33529;49.242;8.670;2022-10-17T02:41:18;13.90;99.90
47765;DHT22;33529;49.242;8.670;2022-10-17T02:43:47;13.90;99.90
47765;DHT22;33529;49.242;8.670;2022-10-17T02:46:18;13.80;99.90
47765;DHT22;33529;49.242;8.670;2022-10-17T02:49:02;13.90;99.90
47765;DHT22;33529;49.242;8.670;2022-10-17T02:51:58;13.80;99.90
47765;DHT22;33529;49.242;8.670;2022-10-17T02:59:43;13.90;99.90
47765;DHT22;33529;49.242;8.670;2022-10-17T03:02:11;13.80;99.90
47765;DHT22;33529;49.242;8.670;2022-10-17T03:04:42;13.90;99.90
47765;DHT22;33529;49.242;8.670;2022-10-17T03:07:09;13.90;99.90
47765;DHT22;33529;49.242;8.670;2022-10-17T03:09:36;13.80;99.90
47765;DHT22;33529;49.242;8.670;2022-10-17T03:12:04;13.80;99.90
47765;DHT22;33529;49.242;8.670;2022-10-17T03:14:32;13.80;99.90
47765;DHT22;33529;49.242;8.670;2022-10-17T03:16:59;13.80;99.90
47765;DHT22;33529;49.242;8.670;2022-10-17T03:19:27;13.80;99.90
47765;DHT22;33529;49.242;8.670;2022-10-17T03:21:54;13.80;99.90
47765;DHT22;33529;49.242;8.670;2022-10-17T03:24:22;13.80;99.90
47765;DHT22;33529;49.242;8.670;2022-10-17T03:26:49;13.80;99.90
47765;DHT22;33529;49.242;8.670;2022-10-17T03:29:16;13.80;99.90
47765;DHT22;33529;49.242;8.670;2022-10-17T03:31:44;13.80;99.90
47765;DHT22;33529;49.242;8.670;2022-10-17T03:34:11;13.70;99.90
47765;DHT22;33529;49.242;8.670;2022-10-17T03:36:38;13.60;99.90
47765;DHT22;33529;49.242;8.670;2022-10-17T03:39:05;13.50;99.90
47765;DHT22;33529;49.242;8.670;2022-10-17T03:41:31;13.50;99.90
47765;DHT22;33529;49.242;8.670;2022-10-17T03:43:58;13.40;99.90
47765;DHT22;33529;49.242;8.670;2022-10-17T03:46:26;13.40;99.90
47765;DHT22;33529;49.242;8.670;2022-10-17T03:48:55;13.50;99.90
47765;DHT22;33529;49.242;8.670;2022-10-17T03:51:22;13.50;99.90
47765;DHT22;33529;49.242;8.670;2022-10-17T03:53:55;13.50;99.90
47765;DHT22;33529;49.242;8.670;2022-10-17T03:56:24;13.50;99.90
47765;DHT22;33529;49.242;8.670;2022-10-17T03:59:03;13.50;99.90
47765;DHT22;33529;49.242;8.670;2022-10-17T04:01:35;13.50;99.90
47765;DHT22;33529;49.242;8.670;2022-10-17T04:04:02;13.50;99.90
47765;DHT22;33529;49.242;8.670;2022-10-17T04:06:32;13.40;99.90
47765;DHT22;33529;49.242;8.670;2022-10-17T04:08:59;13.40;99.90
47765;DHT22;33529;49.242;8.670;2022-10-17T04:11:35;13.40;99.90
47765;DHT22;33529;49.242;8.670;2022-10-17T04:14:03;13.40;99.90
47765;DHT22;33529;49.242;8.670;2022-10-17T04:16:31;13.40;99.90
47765;DHT22;33529;49.242;8.670;2022-10-17T04:19:01;13.40;99.90
47765;DHT22;33529;49.242;8.670;2022-10-17T04:21:34;13.40;99.90
47765;DHT22;33529;49.242;8.670;2022-10-17T04:24:05;13.30;99.90
47765;DHT22;33529;49.242;8.670;2022-10-17T04:26:42;13.30;99.90
47765;DHT22;33529;49.242;8.670;2022-10-17T04:29:10;13.20;99.90
47765;DHT22;33529;49.242;8.670;2022-10-17T04:31:38;13.30;99.90
47765;DHT22;33529;49.242;8.670;2022-10-17T04:34:19;13.30;99.90
47765;DHT22;33529;49.242;8.670;2022-10-17T04:36:46;13.30;99.90
47765;DHT22;33529;49.242;8.670;2022-10-17T04:39:13;13.20;99.90
47765;DHT22;33529;49.242;8.670;2022-10-17T04:41:40;13.20;99.90
47765;DHT22;33529;49.242;8.670;2022-10-17T04:44:09;13.30;99.90
47765;DHT22;33529;49.242;8.670;2022-10-17T04:46:40;13.30;99.90
47765;DHT22;33529;49.242;8.670;2022-10-17T04:49:07;13.30;99.90
47765;DHT22;33529;49.242;8.670;2022-10-17T04:51:37;13.30;99.90
47765;DHT22;33529;49.242;8.670;2022-10-17T04:54:16;13.20;99.90
47765;DHT22;33529;49.242;8.670;2022-10-17T04:56:47;13.20;99.90
47765;DHT22;33529;49.242;8.670;2022-10-17T04:59:14;13.30;99.90
47765;DHT22;33529;49.242;8.670;2022-10-17T05:01:43;13.20;99.90
47765;DHT22;33529;49.242;8.670;2022-10-17T05:04:10;13.20;99.90
47765;DHT22;33529;49.242;8.670;2022-10-17T05:06:37;13.10;99.90
47765;DHT22;33529;49.242;8.670;2022-10-17T05:09:28;13.10;99.90
47765;DHT22;33529;49.242;8.670;2022-10-17T05:11:56;13.00;99.90
47765;DHT22;33529;49.242;8.670;2022-10-17T05:14:23;13.00;99.90
47765;DHT22;33529;49.242;8.670;2022-10-17T05:16:50;13.00;99.90
47765;DHT22;33529;49.242;8.670;2022-10-17T05:19:18;13.00;99.90
47765;DHT22;33529;49.242;8.670;2022-10-17T05:21:48;12.90;99.90
47765;DHT22;33529;49.242;8.670;2022-10-17T05:24:15;12.90;99.90
47765;DHT22;33529;49.242;8.670;2022-10-17T05:26:41;12.90;99.90
47765;DHT22;33529;49.242;8.670;2022-10-17T05:29:08;12.90;99.90
47765;DHT22;33529;49.242;8.670;2022-10-17T05:31:40;12.90;99.90
47765;DHT22;33529;49.242;8.670;2022-10-17T05:34:07;12.80;99.90
47765;DHT22;33529;49.242;8.670;2022-10-17T05:36:40;12.80;99.90
47765;DHT22;33529;49.242;8.670;2022-10-17T05:39:11;12.80;99.90
47765;DHT22;33529;49.242;8.670;2022-10-17T05:41:40;12.80;99.90
47765;DHT22;33529;49.242;8.670;2022-10-17T05:44:07;12.80;99.90
47765;DHT22;33529;49.242;8.670;2022-10-17T05:46:40;12.80;99.90
47765;DHT22;33529;49.242;8.670;2022-10-17T05:49:09;12.80;99.90
47765;DHT22;33529;49.242;8.670;2022-10-17T05:51:56;12.80;99.90
47765;DHT22;33529;49.242;8.670;2022-10-17T05:54:24;12.90;99.90
47765;DHT22;33529;49.242;8.670;2022-10-17T05:56:52;12.90;99.90
47765;DHT22;33529;49.242;8.670;2022-10-17T05:59:20;12.90;99.90
47765;DHT22;33529;49.242;8.670;2022-10-17T06:01:55;12.80;99.90
47765;DHT22;33529;49.242;8.670;2022-10-17T06:04:22;12.90;99.90
47765;DHT22;33529;49.242;8.670;2022-10-17T06:06:52;12.90;99.90
47765;DHT22;33529;49.242;8.670;2022-10-17T06:09:19;12.90;99.90
47765;DHT22;33529;49.242;8.670;2022-10-17T06:11:48;12.90;99.90
47765;DHT22;33529;49.242;8.670;2022-10-17T06:14:15;12.90;99.90
47765;DHT22;33529;49.242;8.670;2022-10-17T06:16:42;12.90;99.90
47765;DHT22;33529;49.242;8.670;2022-10-17T06:19:09;12.90;99.90
47765;DHT22;33529;49.242;8.670;2022-10-17T06:21:37;13.00;99.90
47765;DHT22;33529;49.242;8.670;2022-10-17T06:24:11;13.00;99.90
47765;DHT22;33529;49.242;8.670;2022-10-17T06:26:40;13.00;99.90
47765;DHT22;33529;49.242;8.670;2022-10-17T06:29:09;13.00;99.90
47765;DHT22;33529;49.242;8.670;2022-10-17T06:31:42;13.00;99.90
47765;DHT22;33529;49.242;8.670;2022-10-17T06:34:09;13.00;99.90
47765;DHT22;33529;49.242;8.670;2022-10-17T06:36:38;13.10;99.90
47765;DHT22;33529;49.242;8.670;2022-10-17T06:39:05;13.20;99.90
47765;DHT22;33529;49.242;8.670;2022-10-17T06:41:37;13.20;99.90
47765;DHT22;33529;49.242;8.670;2022-10-17T06:44:06;13.20;99.90
47765;DHT22;33529;49.242;8.670;2022-10-17T06:46:58;13.30;99.90
47765;DHT22;33529;49.242;8.670;2022-10-17T06:49:26;13.40;99.90
47765;DHT22;33529;49.242;8.670;2022-10-17T06:52:11;13.50;99.90
47765;DHT22;33529;49.242;8.670;2022-10-17T06:54:51;13.50;99.90
47765;DHT22;33529;49.242;8.670;2022-10-17T06:57:29;13.50;99.90
47765;DHT22;33529;49.242;8.670;2022-10-17T07:00:20;13.60;99.90
47765;DHT22;33529;49.242;8.670;2022-10-17T07:02:52;13.70;99.90
47765;DHT22;33529;49.242;8.670;2022-10-17T07:05:20;13.70;99.90
47765;DHT22;33529;49.242;8.670;2022-10-17T07:07:47;13.80;99.90
47765;DHT22;33529;49.242;8.670;2022-10-17T07:10:17;13.80;99.90
47765;DHT22;33529;49.242;8.670;2022-10-17T07:12:45;13.80;99.90
47765;DHT22;33529;49.242;8.670;2022-10-17T07:15:12;13.90;99.90
47765;DHT22;33529;49.242;8.670;2022-10-17T07:17:38;13.90;99.90
47765;DHT22;33529;49.242;8.670;2022-10-17T07:20:06;14.00;99.90
47765;DHT22;33529;49.242;8.670;2022-10-17T07:22:35;14.10;99.90
47765;DHT22;33529;49.242;8.670;2022-10-17T07:25:03;14.10;99.90
47765;DHT22;33529;49.242;8.670;2022-10-17T07:27:40;14.20;99.90
47765;DHT22;33529;49.242;8.670;2022-10-17T07:30:07;14.20;99.90
47765;DHT22;33529;49.242;8.670;2022-10-17T07:32:37;14.30;99.90
47765;DHT22;33529;49.242;8.670;2022-10-17T07:35:06;14.40;99.90
47765;DHT22;33529;49.242;8.670;2022-10-17T07:37:34;14.50;99.90
47765;DHT22;33529;49.242;8.670;2022-10-17T07:40:02;14.60;99.90
47765;DHT22;33529;49.242;8.670;2022-10-17T07:42:29;14.70;99.90
47765;DHT22;33529;49.242;8.670;2022-10-17T07:44:57;14.70;99.90
47765;DHT22;33529;49.242;8.670;2022-10-17T07:47:26;14.80;99.90
47765;DHT22;33529;49.242;8.670;2022-10-17T07:49:54;14.90;99.90
47765;DHT22;33529;49.242;8.670;2022-10-17T07:52:21;14.90;99.90
47765;DHT22;33529;49.242;8.670;2022-10-17T07:54:47;15.00;99.90
47765;DHT22;33529;49.242;8.670;2022-10-17T07:57:14;15.10;99.90
47765;DHT22;33529;49.242;8.670;2022-10-17T07:59:41;15.20;99.90
47765;DHT22;33529;49.242;8.670;2022-10-17T08:02:21;15.30;99.90
47765;DHT22;33529;49.242;8.670;2022-10-17T08:04:49;15.40;99.90
47765;DHT22;33529;49.242;8.670;2022-10-17T08:07:16;15.50;99.90
47765;DHT22;33529;49.242;8.670;2022-10-17T08:09:49;15.60;99.90
47765;DHT22;33529;49.242;8.670;2022-10-17T08:12:16;15.70;99.90
47765;DHT22;33529;49.242;8.670;2022-10-17T08:14:43;15.80;99.90
47765;DHT22;33529;49.242;8.670;2022-10-17T08:17:10;16.00;99.90
47765;DHT22;33529;49.242;8.670;2022-10-17T08:19:38;16.10;99.90
47765;DHT22;33529;49.242;8.670;2022-10-17T08:22:06;16.20;99.90
47765;DHT22;33529;49.242;8.670;2022-10-17T08:24:33;16.40;99.90
47765;DHT22;33529;49.242;8.670;2022-10-17T08:27:00;16.50;99.90
47765;DHT22;33529;49.242;8.670;2022-10-17T08:29:27;16.60;99.90
47765;DHT22;33529;49.242;8.670;2022-10-17T08:31:54;16.70;99.90
47765;DHT22;33529;49.242;8.670;2022-10-17T08:34:27;16.90;99.90
47765;DHT22;33529;49.242;8.670;2022-10-17T08:36:54;17.00;99.90
47765;DHT22;33529;49.242;8.670;2022-10-17T08:39:21;17.10;99.90
47765;DHT22;33529;49.242;8.670;2022-10-17T08:45:10;17.40;99.90
47765;DHT22;33529;49.242;8.670;2022-10-17T08:47:47;17.40;99.90
47765;DHT22;33529;49.242;8.670;2022-10-17T08:50:36;17.60;99.90
47765;DHT22;33529;49.242;8.670;2022-10-17T08:53:07;17.70;99.90
47765;DHT22;33529;49.242;8.670;2022-10-17T08:55:47;17.80;99.90
47765;DHT22;33529;49.242;8.670;2022-10-17T08:58:23;17.80;99.90
47765;DHT22;33529;49.242;8.670;2022-10-17T09:01:04;18.00;99.90
47765;DHT22;33529;49.242;8.670;2022-10-17T09:03:51;18.10;99.90
47765;DHT22;33529;49.242;8.670;2022-10-17T09:06:27;18.20;99.90
47765;DHT22;33529;49.242;8.670;2022-10-17T09:09:13;18.30;99.90
47765;DHT22;33529;49.242;8.670;2022-10-17T09:14:30;18.60;99.90
47765;DHT22;33529;49.242;8.670;2022-10-17T09:17:14;18.70;99.90
47765;DHT22;33529;49.242;8.670;2022-10-17T09:20:15;18.80;99.90
47765;DHT22;33529;49.242;8.670;2022-10-17T09:23:17;18.90;99.90
47765;DHT22;33529;49.242;8.670;2022-10-17T09:25:48;18.90;99.90
47765;DHT22;33529;49.242;8.670;2022-10-17T09:31:22;19.20;99.90
47765;DHT22;33529;49.242;8.670;2022-10-17T09:33:51;19.20;99.90
47765;DHT22;33529;49.242;8.670;2022-10-17T09:36:34;19.40;99.90
47765;DHT22;33529;49.242;8.670;2022-10-17T09:39:04;19.50;99.90
47765;DHT22;33529;49.242;8.670;2022-10-17T09:41:36;19.50;99.90
47765;DHT22;33529;49.242;8.670;2022-10-17T09:44:26;19.60;99.90
47765;DHT22;33529;49.242;8.670;2022-10-17T09:50:16;19.60;99.90
47765;DHT22;33529;49.242;8.670;2022-10-17T09:52:47;19.60;99.90
47765;DHT22;33529;49.242;8.670;2022-10-17T09:55:48;19.60;99.90
47765;DHT22;33529;49.242;8.670;2022-10-17T09:58:16;19.60;99.90
47765;DHT22;33529;49.242;8.670;2022-10-17T10:00:45;19.60;99.90
47765;DHT22;33529;49.242;8.670;2022-10-17T10:03:22;19.60;99.90
47765;DHT22;33529;49.242;8.670;2022-10-17T10:06:11;19.60;99.90
47765;DHT22;33529;49.242;8.670;2022-10-17T10:08:53;19.60;99.90
47765;DHT22;33529;49.242;8.670;2022-10-17T10:12:04;19.70;99.90
47765;DHT22;33529;49.242;8.670;2022-10-17T10:14:23;19.70;99.90
47765;DHT22;33529;49.242;8.670;2022-10-17T10:16:54;19.80;99.90
47765;DHT22;33529;49.242;8.670;2022-10-17T10:19:29;19.80;99.90
47765;DHT22;33529;49.242;8.670;2022-10-17T10:24:25;19.90;99.90
47765;DHT22;33529;49.242;8.670;2022-10-17T10:27:01;20.00;99.90
47765;DHT22;33529;49.242;8.670;2022-10-17T10:29:34;20.10;99.90
47765;DHT22;33529;49.242;8.670;2022-10-17T10:32:11;20.10;99.90
47765;DHT22;33529;49.242;8.670;2022-10-17T10:34:57;20.30;99.90
47765;DHT22;33529;49.242;8.670;2022-10-17T10:37:37;20.20;99.90
47765;DHT22;33529;49.242;8.670;2022-10-17T10:40:14;20.20;99.90
47765;DHT22;33529;49.242;8.670;2022-10-17T10:42:41;20.20;99.90
47765;DHT22;33529;49.242;8.670;2022-10-17T10:45:18;20.30;99.90
47765;DHT22;33529;49.242;8.670;2022-10-17T10:50:54;20.40;99.90
47765;DHT22;33529;49.242;8.670;2022-10-17T10:53:31;20.40;99.90
47765;DHT22;33529;49.242;8.670;2022-10-17T10:56:21;20.40;99.90
47765;DHT22;33529;49.242;8.670;2022-10-17T11:01:41;20.70;99.90
47765;DHT22;33529;49.242;8.670;2022-10-17T11:04:33;20.80;99.90
47765;DHT22;33529;49.242;8.670;2022-10-17T11:07:14;20.70;99.90
47765;DHT22;33529;49.242;8.670;2022-10-17T11:10:07;20.90;99.90
47765;DHT22;33529;49.242;8.670;2022-10-17T11:12:41;20.90;99.90
47765;DHT22;33529;49.242;8.670;2022-10-17T11:17:58;21.00;99.90
47765;DHT22;33529;49.242;8.670;2022-10-17T11:23:41;21.30;99.90
47765;DHT22;33529;49.242;8.670;2022-10-17T11:26:23;21.30;99.90
47765;DHT22;33529;49.242;8.670;2022-10-17T11:28:53;21.40;99.90
47765;DHT22;33529;49.242;8.670;2022-10-17T11:31:23;21.40;99.90
47765;DHT22;33529;49.242;8.670;2022-10-17T11:33:58;21.40;99.90
47765;DHT22;33529;49.242;8.670;2022-10-17T11:36:29;21.40;99.90
47765;DHT22;33529;49.242;8.670;2022-10-17T11:39:04;21.30;99.90
47765;DHT22;33529;49.242;8.670;2022-10-17T11:41:36;21.40;99.90
47765;DHT22;33529;49.242;8.670;2022-10-17T11:44:24;21.40;99.90
47765;DHT22;33529;49.242;8.670;2022-10-17T11:49:52;21.50;99.90
47765;DHT22;33529;49.242;8.670;2022-10-17T11:55:21;21.60;99.90
47765;DHT22;33529;49.242;8.670;2022-10-17T12:03:43;21.90;99.90
47765;DHT22;33529;49.242;8.670;2022-10-17T12:09:22;22.00;99.90
47765;DHT22;33529;49.242;8.670;2022-10-17T12:11:56;22.10;99.90
47765;DHT22;33529;49.242;8.670;2022-10-17T12:17:04;22.10;99.90
47765;DHT22;33529;49.242;8.670;2022-10-17T12:19:36;22.20;99.90
47765;DHT22;33529;49.242;8.670;2022-10-17T12:22:18;22.20;99.90
47765;DHT22;33529;49.242;8.670;2022-10-17T12:27:37;22.20;99.90
47765;DHT22;33529;49.242;8.670;2022-10-17T12:35:35;22.20;99.90
47765;DHT22;33529;49.242;8.670;2022-10-17T12:38:23;22.20;99.90
47765;DHT22;33529;49.242;8.670;2022-10-17T12:40:58;22.10;99.90
47765;DHT22;33529;49.242;8.670;2022-10-17T12:45:59;22.10;99.90
47765;DHT22;33529;49.242;8.670;2022-10-17T12:51:13;22.10;99.90
47765;DHT22;33529;49.242;8.670;2022-10-17T12:54:12;22.00;99.90
47765;DHT22;33529;49.242;8.670;2022-10-17T12:56:43;22.00;99.90
47765;DHT22;33529;49.242;8.670;2022-10-17T12:59:23;22.10;99.90
47765;DHT22;33529;49.242;8.670;2022-10-17T13:01:55;22.10;99.90
47765;DHT22;33529;49.242;8.670;2022-10-17T13:04:23;22.20;99.90
47765;DHT22;33529;49.242;8.670;2022-10-17T13:06:54;22.10;99.90
47765;DHT22;33529;49.242;8.670;2022-10-17T13:11:57;22.20;99.90
47765;DHT22;33529;49.242;8.670;2022-10-17T13:14:26;22.10;99.90
47765;DHT22;33529;49.242;8.670;2022-10-17T13:17:04;22.00;99.90
47765;DHT22;33529;49.242;8.670;2022-10-17T13:19:43;22.10;99.90
47765;DHT22;33529;49.242;8.670;2022-10-17T13:22:16;22.20;99.90
47765;DHT22;33529;49.242;8.670;2022-10-17T13:24:43;22.40;99.90
47765;DHT22;33529;49.242;8.670;2022-10-17T13:27:40;22.40;99.90
47765;DHT22;33529;49.242;8.670;2022-10-17T13:32:58;22.50;99.90
47765;DHT22;33529;49.242;8.670;2022-10-17T13:35:34;22.50;99.90
47765;DHT22;33529;49.242;8.670;2022-10-17T13:38:25;22.50;99.90
47765;DHT22;33529;49.242;8.670;2022-10-17T13:40:53;22.50;99.90
47765;DHT22;33529;49.242;8.670;2022-10-17T13:43:31;22.50;99.90
47765;DHT22;33529;49.242;8.670;2022-10-17T13:46:00;22.60;99.90
47765;DHT22;33529;49.242;8.670;2022-10-17T13:48:51;22.70;99.90
47765;DHT22;33529;49.242;8.670;2022-10-17T13:51:18;22.60;99.90
47765;DHT22;33529;49.242;8.670;2022-10-17T13:53:45;22.60;99.90
47765;DHT22;33529;49.242;8.670;2022-10-17T13:56:16;22.60;99.90
47765;DHT22;33529;49.242;8.670;2022-10-17T13:59:05;22.60;99.90
47765;DHT22;33529;49.242;8.670;2022-10-17T14:01:34;22.60;99.90
47765;DHT22;33529;49.242;8.670;2022-10-17T14:04:03;22.60;99.90
47765;DHT22;33529;49.242;8.670;2022-10-17T14:06:46;22.50;99.90
47765;DHT22;33529;49.242;8.670;2022-10-17T14:09:25;22.60;99.90
47765;DHT22;33529;49.242;8.670;2022-10-17T14:12:09;22.60;99.90
47765;DHT22;33529;49.242;8.670;2022-10-17T14:14:40;22.60;99.90
47765;DHT22;33529;49.242;8.670;2022-10-17T14:17:32;22.60;99.90
47765;DHT22;33529;49.242;8.670;2022-10-17T14:20:02;22.60;99.90
47765;DHT22;33529;49.242;8.670;2022-10-17T14:22:50;22.60;99.90
47765;DHT22;33529;49.242;8.670;2022-10-17T14:25:39;22.70;99.90
47765;DHT22;33529;49.242;8.670;2022-10-17T14:30:37;22.60;99.90
47765;DHT22;33529;49.242;8.670;2022-10-17T14:33:28;22.50;99.90
47765;DHT22;33529;49.242;8.670;2022-10-17T14:35:57;22.60;99.90
47765;DHT22;33529;49.242;8.670;2022-10-17T14:38:25;22.60;99.90
47765;DHT22;33529;49.242;8.670;2022-10-17T14:41:01;22.50;99.90
47765;DHT22;33529;49.242;8.670;2022-10-17T14:43:58;22.50;99.90
47765;DHT22;33529;49.242;8.670;2022-10-17T14:46:26;22.40;99.90
47765;DHT22;33529;49.242;8.670;2022-10-17T14:49:02;22.50;99.90
47765;DHT22;33529;49.242;8.670;2022-10-17T14:51:29;22.50;99.90
47765;DHT22;33529;49.242;8.670;2022-10-17T14:54:23;22.40;99.90
47765;DHT22;33529;49.242;8.670;2022-10-17T14:56:51;22.40;99.90
47765;DHT22;33529;49.242;8.670;2022-10-17T14:59:19;22.40;99.90
47765;DHT22;33529;49.242;8.670;2022-10-17T15:02:08;22.30;99.90
47765;DHT22;33529;49.242;8.670;2022-10-17T15:04:35;22.30;99.90
47765;DHT22;33529;49.242;8.670;2022-10-17T15:07:04;22.30;99.90
47765;DHT22;33529;49.242;8.670;2022-10-17T15:09:31;22.20;99.90
47765;DHT22;33529;49.242;8.670;2022-10-17T15:12:01;22.20;99.90
47765;DHT22;33529;49.242;8.670;2022-10-17T15:14:30;22.20;99.90
47765;DHT22;33529;49.242;8.670;2022-10-17T15:16:56;22.10;99.90
47765;DHT22;33529;49.242;8.670;2022-10-17T15:19:23;22.10;99.90
47765;DHT22;33529;49.242;8.670;2022-10-17T15:21:50;22.10;99.90
47765;DHT22;33529;49.242;8.670;2022-10-17T15:24:17;22.00;99.90
47765;DHT22;33529;49.242;8.670;2022-10-17T15:26:44;21.90;99.90
47765;DHT22;33529;49.242;8.670;2022-10-17T15:29:14;21.90;99.90
47765;DHT22;33529;49.242;8.670;2022-10-17T15:31:41;21.90;99.90
47765;DHT22;33529;49.242;8.670;2022-10-17T15:34:11;21.80;99.90
47765;DHT22;33529;49.242;8.670;2022-10-17T15:36:39;21.70;99.90
47765;DHT22;33529;49.242;8.670;2022-10-17T15:39:08;21.60;99.90
47765;DHT22;33529;49.242;8.670;2022-10-17T15:41:35;21.60;99.90
47765;DHT22;33529;49.242;8.670;2022-10-17T15:44:02;21.60;99.90
47765;DHT22;33529;49.242;8.670;2022-10-17T15:46:32;21.60;99.90
47765;DHT22;33529;49.242;8.670;2022-10-17T15:49:09;21.50;99.90
47765;DHT22;33529;49.242;8.670;2022-10-17T15:51:37;21.50;99.90
47765;DHT22;33529;49.242;8.670;2022-10-17T15:54:06;21.40;99.90
47765;DHT22;33529;49.242;8.670;2022-10-17T15:56:39;21.40;99.90
47765;DHT22;33529;49.242;8.670;2022-10-17T15:59:14;21.40;99.90
47765;DHT22;33529;49.242;8.670;2022-10-17T16:01:42;21.30;99.90
47765;DHT22;33529;49.242;8.670;2022-10-17T16:04:12;21.30;99.90
47765;DHT22;33529;49.242;8.670;2022-10-17T16:06:41;21.30;99.90
47765;DHT22;33529;49.242;8.670;2022-10-17T16:09:08;21.20;99.90
47765;DHT22;33529;49.242;8.670;2022-10-17T16:11:40;21.10;99.90
47765;DHT22;33529;49.242;8.670;2022-10-17T16:14:14;21.00;99.90
47765;DHT22;33529;49.242;8.670;2022-10-17T16:16:41;20.80;99.90
47765;DHT22;33529;49.242;8.670;2022-10-17T16:19:08;20.70;99.90
47765;DHT22;33529;49.242;8.670;2022-10-17T16:21:37;20.60;99.90
47765;DHT22;33529;49.242;8.670;2022-10-17T16:24:05;20.50;99.90
47765;DHT22;33529;49.242;8.670;2022-10-17T16:26:32;20.30;99.90
47765;DHT22;33529;49.242;8.670;2022-10-17T16:28:59;20.20;99.90
47765;DHT22;33529;49.242;8.670;2022-10-17T16:31:34;20.10;99.90
47765;DHT22;33529;49.242;8.670;2022-10-17T16:34:02;19.90;99.90
47765;DHT22;33529;49.242;8.670;2022-10-17T16:36:29;19.80;99.90
47765;DHT22;33529;49.242;8.670;2022-10-17T16:38:56;19.60;99.90
47765;DHT22;33529;49.242;8.670;2022-10-17T16:41:28;19.50;99.90
47765;DHT22;33529;49.242;8.670;2022-10-17T16:43:57;19.40;99.90
47765;DHT22;33529;49.242;8.670;2022-10-17T16:46:25;19.30;99.90
47765;DHT22;33529;49.242;8.670;2022-10-17T16:48:53;19.10;99.90
47765;DHT22;33529;49.242;8.670;2022-10-17T16:51:20;19.10;99.90
47765;DHT22;33529;49.242;8.670;2022-10-17T16:53:49;18.90;99.90
47765;DHT22;33529;49.242;8.670;2022-10-17T16:56:18;18.90;99.90
47765;DHT22;33529;49.242;8.670;2022-10-17T16:58:46;18.70;99.90
47765;DHT22;33529;49.242;8.670;2022-10-17T17:01:19;18.60;99.90
47765;DHT22;33529;49.242;8.670;2022-10-17T17:03:46;18.50;99.90
47765;DHT22;33529;49.242;8.670;2022-10-17T17:06:16;18.50;99.90
47765;DHT22;33529;49.242;8.670;2022-10-17T17:08:44;18.40;99.90
47765;DHT22;33529;49.242;8.670;2022-10-17T17:11:13;18.30;99.90
47765;DHT22;33529;49.242;8.670;2022-10-17T17:13:40;18.30;99.90
47765;DHT22;33529;49.242;8.670;2022-10-17T17:16:08;18.20;99.90
47765;DHT22;33529;49.242;8.670;2022-10-17T17:18:35;18.10;99.90
47765;DHT22;33529;49.242;8.670;2022-10-17T17:21:04;18.10;99.90
47765;DHT22;33529;49.242;8.670;2022-10-17T17:23:33;17.90;99.90
47765;DHT22;33529;49.242;8.670;2022-10-17T17:26:07;17.80;99.90
47765;DHT22;33529;49.242;8.670;2022-10-17T17:28:34;17.70;99.90
47765;DHT22;33529;49.242;8.670;2022-10-17T17:31:04;17.60;99.90
47765;DHT22;33529;49.242;8.670;2022-10-17T17:33:31;17.50;99.90
47765;DHT22;33529;49.242;8.670;2022-10-17T17:36:00;17.50;99.90
47765;DHT22;33529;49.242;8.670;2022-10-17T17:38:28;17.40;99.90